createdAt,value
2022-08-03T00:00:30.640Z,101636.68
2022-08-03T00:02:58.333Z,101647.77
2022-08-03T00:05:26.092Z,101641.26
2022-08-03T00:07:53.719Z,101639.39
2022-08-03T00:10:21.487Z,101640.27
2022-08-03T00:12:49.219Z,101634.98
2022-08-03T00:15:17.169Z,101641.62
2022-08-03T00:17:53.713Z,101637.66
2022-08-03T00:20:22.959Z,101644.56
2022-08-03T00:22:51.418Z,101638.51
2022-08-03T00:25:19.340Z,101634.78
2022-08-03T00:27:48.281Z,101625.04
2022-08-03T00:30:16.857Z,101621.12
2022-08-03T00:32:45.645Z,101625.37
2022-08-03T00:35:24.141Z,101624.02
2022-08-03T00:38:01.593Z,101617.95
2022-08-03T00:40:29.741Z,101623.77
2022-08-03T00:43:02.875Z,101617.16
2022-08-03T00:45:35.897Z,101616.93
2022-08-03T00:48:05.485Z,101623.60
2022-08-03T00:50:36.882Z,101621.87
2022-08-03T00:53:07.271Z,101618.20
2022-08-03T00:55:37.072Z,101613.27
2022-08-03T00:58:08.470Z,101614.58
2022-08-03T01:00:40.064Z,101621.48
2022-08-03T01:03:09.649Z,101612.29
2022-08-03T01:05:47.594Z,101617.29
2022-08-03T01:08:37.778Z,101618.14
2022-08-03T01:11:11.282Z,101611.93
2022-08-03T01:14:02.361Z,101621.41
2022-08-03T01:16:58.351Z,101618.56
2022-08-03T01:19:51.351Z,101625.17
2022-08-03T01:22:36.350Z,101621.64
2022-08-03T01:25:34.515Z,101626.12
2022-08-03T01:28:39.509Z,101625.10
2022-08-03T01:31:11.657Z,101613.23
2022-08-03T01:33:48.020Z,101617.23
2022-08-03T01:36:20.314Z,101613.53
2022-08-03T01:38:53.229Z,101614.84
2022-08-03T01:41:31.081Z,101606.63
2022-08-03T01:44:30.250Z,101612.94
2022-08-03T01:46:52.434Z,101611.93
2022-08-03T01:49:20.408Z,101608.20
2022-08-03T01:52:03.247Z,101608.49
2022-08-03T01:54:36.842Z,101615.88
2022-08-03T01:57:05.644Z,101615.42
2022-08-03T01:59:37.416Z,101613.89
2022-08-03T02:02:28.126Z,101607.58
2022-08-03T02:04:58.069Z,101606.30
2022-08-03T02:07:28.200Z,101605.55
2022-08-03T02:09:58.329Z,101613.73
2022-08-03T02:12:28.828Z,101605.65
2022-08-03T02:15:00.092Z,101614.12
2022-08-03T02:17:39.546Z,101617.02
2022-08-03T02:20:10.386Z,101613.30
2022-08-03T02:22:41.394Z,101612.02
2022-08-03T02:25:13.562Z,101612.02
2022-08-03T02:27:53.934Z,101610.20
2022-08-03T02:30:23.169Z,101618.66
2022-08-03T02:32:55.699Z,101607.88
2022-08-03T02:35:27.379Z,101608.72
2022-08-03T02:38:00.834Z,101604.77
2022-08-03T02:40:31.299Z,101607.94
2022-08-03T02:43:03.577Z,101601.10
2022-08-03T02:45:37.071Z,101594.79
2022-08-03T02:48:07.076Z,101591.09
2022-08-03T02:50:36.313Z,101597.70
2022-08-03T02:53:05.334Z,101599.56
2022-08-03T02:55:36.925Z,101601.13
2022-08-03T02:58:13.803Z,101601.40
2022-08-03T03:00:45.102Z,101602.15
2022-08-03T03:03:14.101Z,101597.67
2022-08-03T03:05:52.835Z,101594.27
2022-08-03T03:08:28.254Z,101607.45
2022-08-03T03:11:01.411Z,101597.96
2022-08-03T03:13:33.533Z,101599.80
2022-08-03T03:16:03.807Z,101592.44
2022-08-03T03:18:34.273Z,101595.84
2022-08-03T03:21:04.002Z,101595.58
2022-08-03T03:23:33.055Z,101595.31
2022-08-03T03:26:03.365Z,101599.56
2022-08-03T03:28:32.911Z,101595.38
2022-08-03T03:31:01.811Z,101602.02
2022-08-03T03:33:29.596Z,101595.67
2022-08-03T03:35:59.602Z,101602.57
2022-08-03T03:38:27.919Z,101608.66
2022-08-03T03:40:56.802Z,101608.69
2022-08-03T03:43:25.143Z,101613.46
2022-08-03T03:45:54.744Z,101614.54
2022-08-03T03:48:23.701Z,101612.94
2022-08-03T03:50:51.907Z,101616.93
2022-08-03T03:53:19.710Z,101614.54
2022-08-03T03:55:59.238Z,101624.32
2022-08-03T03:58:31.105Z,101617.98
2022-08-03T04:00:58.904Z,101623.53
2022-08-03T04:03:26.702Z,101618.27
2022-08-03T04:06:29.684Z,101620.92
2022-08-03T04:09:20.321Z,101617.75
2022-08-03T04:11:54.410Z,101614.34
2022-08-03T04:14:27.008Z,101615.66
2022-08-03T04:17:01.723Z,101618.56
2022-08-03T04:19:44.969Z,101618.83
2022-08-03T04:22:18.776Z,101614.61
2022-08-03T04:25:05.173Z,101629.87
2022-08-03T04:27:39.334Z,101618.83
2022-08-03T04:30:08.578Z,101614.64
2022-08-03T04:32:40.003Z,101625.17
2022-08-03T04:35:11.237Z,101619.38
2022-08-03T04:37:47.240Z,101624.94
2022-08-03T04:40:20.400Z,101623.60
2022-08-03T04:42:51.493Z,101633.64
2022-08-03T04:45:22.096Z,101628.34
2022-08-03T04:47:51.320Z,101624.68
2022-08-03T04:50:21.526Z,101641.00
2022-08-03T04:52:50.044Z,101631.25
2022-08-03T04:55:47.082Z,101643.13
2022-08-03T04:58:14.832Z,101641.52
2022-08-03T05:00:43.326Z,101638.91
2022-08-03T05:03:23.652Z,101646.78
2022-08-03T05:06:01.916Z,101648.88
2022-08-03T05:08:46.514Z,101649.37
2022-08-03T05:11:18.172Z,101655.71
2022-08-03T05:13:46.706Z,101655.19
2022-08-03T05:16:14.985Z,101652.28
2022-08-03T05:18:43.731Z,101649.63
2022-08-03T05:21:13.529Z,101657.80
2022-08-03T05:23:42.557Z,101661.20
2022-08-03T05:26:10.333Z,101657.25
2022-08-03T05:28:38.002Z,101663.56
2022-08-03T05:31:05.652Z,101660.65
2022-08-03T05:33:33.317Z,101662.45
2022-08-03T05:36:04.272Z,101656.63
2022-08-03T05:38:34.399Z,101659.02
2022-08-03T05:41:21.155Z,101669.02
2022-08-03T05:43:53.049Z,101667.95
2022-08-03T05:46:21.725Z,101669.74
2022-08-03T05:48:49.492Z,101664.67
2022-08-03T05:51:17.466Z,101666.50
2022-08-03T05:53:45.429Z,101667.26
2022-08-03T05:56:16.290Z,101667.22
2022-08-03T05:58:47.384Z,101667.71
2022-08-03T06:01:17.145Z,101674.02
2022-08-03T06:03:46.375Z,101666.60
2022-08-03T06:06:14.290Z,101663.66
2022-08-03T06:08:43.192Z,101654.11
2022-08-03T06:11:10.971Z,101664.37
2022-08-03T06:13:38.796Z,101664.87
2022-08-03T06:16:06.899Z,101664.84
2022-08-03T06:18:34.872Z,101665.55
2022-08-03T06:21:14.435Z,101666.83
2022-08-03T06:23:53.226Z,101663.63
2022-08-03T06:26:22.744Z,101663.04
2022-08-03T06:28:53.247Z,101664.57
2022-08-03T06:31:23.951Z,101671.96
2022-08-03T06:34:32.238Z,101662.94
2022-08-03T06:36:39.553Z,101667.87
2022-08-03T06:39:08.191Z,101669.74
2022-08-03T06:41:38.086Z,101667.29
2022-08-03T06:44:12.748Z,101673.63
2022-08-03T06:46:40.901Z,101666.86
2022-08-03T06:49:09.051Z,101659.96
2022-08-03T06:52:04.186Z,101668.34
2022-08-03T06:54:25.527Z,101670.72
2022-08-03T06:56:53.261Z,101669.84
2022-08-03T07:00:09.141Z,101679.32
2022-08-03T07:02:08.770Z,101675.53
2022-08-03T07:04:36.450Z,101671.77
2022-08-03T07:07:04.632Z,101675.17
2022-08-03T07:09:32.291Z,101681.94
2022-08-03T07:12:00.500Z,101687.17
2022-08-03T07:14:28.186Z,101679.38
2022-08-03T07:16:56.629Z,101680.86
2022-08-03T07:19:24.322Z,101674.65
2022-08-03T07:21:52.021Z,101674.80
2022-08-03T07:24:21.380Z,101674.19
2022-08-03T07:26:49.058Z,101667.95
2022-08-03T07:29:16.797Z,101671.02
2022-08-03T07:31:44.521Z,101669.02
2022-08-03T07:34:12.354Z,101669.38
2022-08-03T07:36:40.058Z,101665.03
2022-08-03T07:39:16.623Z,101676.28
2022-08-03T07:41:46.945Z,101671.93
2022-08-03T07:44:15.032Z,101668.59
2022-08-03T07:46:42.829Z,101675.33
2022-08-03T07:49:11.396Z,101665.69
2022-08-03T07:51:39.255Z,101671.44
2022-08-03T07:54:07.049Z,101672.88
2022-08-03T07:56:35.170Z,101667.74
2022-08-03T07:59:04.022Z,101671.34
2022-08-03T08:01:33.836Z,101668.34
2022-08-03T08:04:01.553Z,101662.38
2022-08-03T08:06:29.301Z,101667.52
2022-08-03T08:09:00.634Z,101660.78
2022-08-03T08:11:28.270Z,101664.57
2022-08-03T08:13:55.989Z,101658.98
2022-08-03T08:16:23.655Z,101666.05
2022-08-03T08:18:51.403Z,101662.41
2022-08-03T08:21:19.330Z,101666.02
2022-08-03T08:23:54.975Z,101653.45
2022-08-03T08:26:25.566Z,101660.75
2022-08-03T08:28:53.939Z,101654.80
2022-08-03T08:31:21.665Z,101660.13
2022-08-03T08:34:03.729Z,101646.98
2022-08-03T08:36:35.358Z,101655.62
2022-08-03T08:39:03.245Z,101661.53
2022-08-03T08:41:34.848Z,101663.52
2022-08-03T08:44:03.504Z,101652.28
2022-08-03T08:46:34.178Z,101652.34
2022-08-03T08:49:04.678Z,101651.66
2022-08-03T08:51:54.629Z,101647.77
2022-08-03T08:54:27.078Z,101645.73
2022-08-03T08:56:58.257Z,101640.51
2022-08-03T08:59:26.973Z,101647.02
2022-08-03T09:02:15.213Z,101648.42
2022-08-03T09:04:43.442Z,101646.72
2022-08-03T09:07:20.183Z,101646.55
2022-08-03T09:10:04.628Z,101657.54
2022-08-03T09:12:45.337Z,101653.65
2022-08-03T09:15:23.960Z,101659.02
2022-08-03T09:17:53.092Z,101662.48
2022-08-03T09:20:22.539Z,101655.84
2022-08-03T09:22:57.741Z,101659.31
2022-08-03T09:25:30.776Z,101653.42
2022-08-03T09:28:09.120Z,101660.65
2022-08-03T09:30:38.458Z,101651.33
2022-08-03T09:33:12.963Z,101655.71
2022-08-03T09:35:53.910Z,101648.88
2022-08-03T09:38:29.124Z,101649.43
2022-08-03T09:41:00.238Z,101653.78
2022-08-03T09:43:28.734Z,101659.27
2022-08-03T09:46:08.455Z,101654.05
2022-08-03T09:48:37.982Z,101654.53
2022-08-03T09:51:13.180Z,101650.94
2022-08-03T09:53:59.573Z,101662.35
2022-08-03T09:56:48.505Z,101651.63
2022-08-03T09:59:28.203Z,101647.50
2022-08-03T10:01:57.026Z,101641.81
2022-08-03T10:04:25.633Z,101633.73
2022-08-03T10:07:07.734Z,101636.35
2022-08-03T10:09:35.782Z,101636.48
2022-08-03T10:12:14.394Z,101639.49
2022-08-03T10:14:43.200Z,101633.34
2022-08-03T10:17:11.110Z,101634.39
2022-08-03T10:19:39.456Z,101632.49
2022-08-03T10:22:28.740Z,101629.03
2022-08-03T10:24:56.343Z,101629.48
2022-08-03T10:27:26.182Z,101629.68
2022-08-03T10:30:01.154Z,101629.91
2022-08-03T10:32:58.569Z,101624.09
2022-08-03T10:35:27.364Z,101628.44
2022-08-03T10:38:02.878Z,101631.02
2022-08-03T10:40:48.263Z,101629.65
2022-08-03T10:43:50.068Z,101615.78
2022-08-03T10:46:21.777Z,101612.25
2022-08-03T10:48:51.863Z,101613.82
2022-08-03T10:51:21.432Z,101605.02
2022-08-03T10:53:54.597Z,101604.27
2022-08-03T10:56:54.552Z,101601.13
2022-08-03T10:59:47.301Z,101602.70
2022-08-03T11:02:19.244Z,101599.76
2022-08-03T11:04:46.944Z,101590.15
2022-08-03T11:07:20.987Z,101596.00
2022-08-03T11:09:51.718Z,101592.24
2022-08-03T11:12:33.503Z,101588.52
2022-08-03T11:15:09.701Z,101593.78
2022-08-03T11:17:46.216Z,101587.30
2022-08-03T11:20:45.514Z,101588.80
2022-08-03T11:23:13.880Z,101586.81
2022-08-03T11:26:10.280Z,101579.55
2022-08-03T11:28:39.954Z,101577.33
2022-08-03T11:34:17.630Z,101569.38
2022-08-03T11:37:26.408Z,101575.59
2022-08-03T11:39:57.958Z,101566.90
2022-08-03T11:42:25.657Z,101573.70
2022-08-03T11:44:55.250Z,101572.23
2022-08-03T11:47:25.180Z,101566.27
2022-08-03T11:49:56.131Z,101566.21
2022-08-03T11:52:26.947Z,101563.01
2022-08-03T11:54:57.435Z,101559.05
2022-08-03T11:59:16.812Z,101561.96
2022-08-03T12:00:26.945Z,101555.39
2022-08-03T12:03:21.523Z,101544.89
2022-08-03T12:05:54.802Z,101547.73
2022-08-03T12:08:28.757Z,101545.35
2022-08-03T12:10:58.599Z,101542.14
2022-08-03T12:14:08.891Z,101537.70
2022-08-03T12:16:20.547Z,101542.57
2022-08-03T12:19:03.344Z,101538.71
2022-08-03T12:21:31.975Z,101534.91
2022-08-03T12:24:05.127Z,101529.39
2022-08-03T12:26:58.195Z,101535.93
2022-08-03T12:29:27.660Z,101530.41
2022-08-03T12:31:55.958Z,101535.21
2022-08-03T12:34:24.036Z,101528.90
2022-08-03T12:36:53.513Z,101521.15
2022-08-03T12:39:25.709Z,101522.27
2022-08-03T12:41:57.962Z,101524.78
2022-08-03T12:44:37.198Z,101526.80
2022-08-03T12:47:07.719Z,101517.52
2022-08-03T12:49:55.085Z,101506.66
2022-08-03T12:52:24.207Z,101515.07
2022-08-03T12:55:00.157Z,101511.08
2022-08-03T12:57:41.779Z,101509.87
2022-08-03T13:00:28.767Z,101513.92
2022-08-03T13:03:39.149Z,101509.73
2022-08-03T13:06:03.418Z,101515.95
2022-08-03T13:08:31.121Z,101512.55
2022-08-03T13:10:58.808Z,101517.85
2022-08-03T13:13:41.573Z,101515.04
2022-08-03T13:16:09.290Z,101511.51
2022-08-03T13:18:36.989Z,101509.48
2022-08-03T13:21:05.938Z,101517.88
2022-08-03T13:23:33.657Z,101507.45
2022-08-03T13:26:01.405Z,101506.08
2022-08-03T13:28:29.153Z,101505.29
2022-08-03T13:30:57.113Z,101503.88
2022-08-03T13:33:24.831Z,101501.10
2022-08-03T13:35:52.600Z,101498.95
2022-08-03T13:38:21.606Z,101499.57
2022-08-03T13:40:55.021Z,101493.65
2022-08-03T13:43:23.811Z,101490.87
2022-08-03T13:45:56.561Z,101489.30
2022-08-03T13:48:36.865Z,101486.95
2022-08-03T13:51:21.554Z,101482.59
2022-08-03T13:53:50.251Z,101480.44
2022-08-03T13:56:17.936Z,101479.06
2022-08-03T13:58:45.603Z,101479.06
2022-08-03T14:01:13.387Z,101476.25
2022-08-03T14:03:41.153Z,101477.04
2022-08-03T14:06:08.864Z,101477.66
2022-08-03T14:08:36.569Z,101473.15
2022-08-03T14:11:04.858Z,101480.44
2022-08-03T14:13:32.536Z,101477.34
2022-08-03T14:16:00.443Z,101478.90
2022-08-03T14:18:33.758Z,101467.72
2022-08-03T14:21:06.277Z,101470.66
2022-08-03T14:23:35.456Z,101469.26
2022-08-03T14:26:03.337Z,101470.83
2022-08-03T14:28:31.043Z,101468.50
2022-08-03T14:30:59.004Z,101466.94
2022-08-03T14:33:26.732Z,101465.40
2022-08-03T14:35:54.602Z,101465.40
2022-08-03T14:38:23.348Z,101467.55
2022-08-03T14:40:51.862Z,101454.80
2022-08-03T14:43:21.287Z,101457.62
2022-08-03T14:45:54.472Z,101456.53
2022-08-03T14:50:29.534Z,101448.59
2022-08-03T14:51:11.641Z,101449.08
2022-08-03T14:53:39.500Z,101441.95
2022-08-03T14:56:10.380Z,101440.09
2022-08-03T14:58:39.074Z,101428.28
2022-08-03T15:02:05.546Z,101435.28
2022-08-03T15:03:56.428Z,101432.63
2022-08-03T15:06:24.126Z,101428.02
2022-08-03T15:09:13.852Z,101424.13
2022-08-03T15:11:39.862Z,101429.10
2022-08-03T15:14:09.556Z,101421.02
2022-08-03T15:16:37.727Z,101419.29
2022-08-03T15:20:03.518Z,101421.45
2022-08-03T15:21:53.699Z,101411.02
2022-08-03T15:24:21.453Z,101419.42
2022-08-03T15:26:49.249Z,101409.91
2022-08-03T15:30:05.426Z,101408.47
2022-08-03T15:32:09.002Z,101404.67
2022-08-03T15:34:37.237Z,101396.70
2022-08-03T15:37:16.221Z,101390.12
2022-08-03T15:39:58.378Z,101394.44
2022-08-03T15:42:31.968Z,101384.89
2022-08-03T15:45:00.099Z,101386.85
2022-08-03T15:47:28.503Z,101389.60
2022-08-03T15:49:56.363Z,101381.12
2022-08-03T15:52:24.227Z,101387.51
2022-08-03T15:54:51.972Z,101385.58
2022-08-03T15:57:19.964Z,101381.52
2022-08-03T15:59:47.887Z,101378.84
2022-08-03T16:02:16.113Z,101374.62
2022-08-03T16:04:43.834Z,101371.02
2022-08-03T16:07:12.760Z,101367.39
2022-08-03T16:09:43.011Z,101368.48
2022-08-03T16:12:15.596Z,101376.59
2022-08-03T16:14:54.001Z,101371.55
2022-08-03T16:17:23.026Z,101374.39
2022-08-03T16:19:54.905Z,101367.69
2022-08-03T16:22:23.762Z,101363.34
2022-08-03T16:24:52.636Z,101361.12
2022-08-03T16:27:58.150Z,101354.58
2022-08-03T16:30:10.488Z,101360.62
2022-08-03T16:32:41.243Z,101363.73
2022-08-03T16:35:09.677Z,101360.89
2022-08-03T16:37:50.797Z,101361.80
2022-08-03T16:40:26.033Z,101364.78
2022-08-03T16:42:53.957Z,101353.73
2022-08-03T16:45:21.731Z,101356.67
2022-08-03T16:48:01.501Z,101355.13
2022-08-03T16:50:33.192Z,101367.46
2022-08-03T16:53:00.930Z,101350.20
2022-08-03T16:55:48.665Z,101351.47
2022-08-03T16:58:18.965Z,101360.98
2022-08-03T17:01:21.075Z,101357.91
2022-08-03T17:04:02.700Z,101351.86
2022-08-03T17:06:36.797Z,101356.21
2022-08-03T17:09:10.191Z,101354.51
2022-08-03T17:11:46.734Z,101353.46
2022-08-03T17:14:22.056Z,101351.50
2022-08-03T17:16:52.979Z,101354.80
2022-08-03T17:19:24.620Z,101355.16
2022-08-03T17:22:04.340Z,101358.47
2022-08-03T17:24:41.551Z,101363.18
2022-08-03T17:27:18.667Z,101350.78
2022-08-03T17:30:07.752Z,101353.92
2022-08-03T17:32:42.467Z,101356.96
2022-08-03T17:35:11.569Z,101358.40
2022-08-03T17:37:57.382Z,101359.88
2022-08-03T17:40:30.913Z,101363.50
2022-08-03T17:43:01.778Z,101365.40
2022-08-03T17:45:52.926Z,101367.46
2022-08-03T17:48:25.157Z,101364.88
2022-08-03T17:50:59.556Z,101371.29
2022-08-03T17:53:35.241Z,101373.15
2022-08-03T17:56:38.862Z,101372.85
2022-08-03T17:59:50.943Z,101375.63
2022-08-03T18:02:48.917Z,101382.47
2022-08-03T18:05:21.778Z,101385.55
2022-08-03T18:07:59.486Z,101382.86
2022-08-03T18:10:35.248Z,101382.83
2022-08-03T18:13:21.082Z,101390.71
2022-08-03T18:15:59.566Z,101392.84
2022-08-03T18:18:40.262Z,101387.54
2022-08-03T18:21:16.698Z,101388.88
2022-08-03T18:23:50.330Z,101389.60
2022-08-03T18:26:19.581Z,101389.86
2022-08-03T18:28:50.924Z,101388.42
2022-08-03T18:31:59.973Z,101383.41
2022-08-03T18:34:16.449Z,101390.97
2022-08-03T18:36:49.368Z,101390.64
2022-08-03T18:39:19.660Z,101388.59
2022-08-03T18:41:47.550Z,101392.57
2022-08-03T18:44:45.655Z,101393.62
2022-08-03T18:47:07.394Z,101395.29
2022-08-03T18:49:57.358Z,101391.07
2022-08-03T18:52:37.499Z,101386.16
2022-08-03T18:55:33.745Z,101388.03
2022-08-03T18:58:26.106Z,101386.10
2022-08-03T19:01:57.844Z,101382.47
2022-08-03T19:04:04.084Z,101388.62
2022-08-03T19:06:32.850Z,101387.93
2022-08-03T19:09:10.171Z,101399.18
2022-08-03T19:12:12.503Z,101396.34
2022-08-03T19:14:45.885Z,101388.95
2022-08-03T19:17:21.252Z,101399.21
2022-08-03T19:19:51.871Z,101399.44
2022-08-03T19:22:24.321Z,101398.13
2022-08-03T19:24:55.033Z,101404.28
2022-08-03T19:27:26.944Z,101403.73
2022-08-03T19:30:01.847Z,101412.03
2022-08-03T19:32:33.420Z,101409.12
2022-08-03T19:35:02.917Z,101416.02
2022-08-03T19:37:38.134Z,101419.78
2022-08-03T19:40:10.950Z,101425.90
2022-08-03T19:42:45.520Z,101420.04
2022-08-03T19:45:18.307Z,101425.38
2022-08-03T19:47:48.911Z,101428.55
2022-08-03T19:50:20.071Z,101429.55
2022-08-03T19:52:50.728Z,101431.36
2022-08-03T19:55:19.767Z,101427.83
2022-08-03T19:57:49.658Z,101429.82
2022-08-03T20:00:26.277Z,101435.31
2022-08-03T20:02:55.085Z,101428.48
2022-08-03T20:05:22.939Z,101425.77
2022-08-03T20:07:51.621Z,101440.05
2022-08-03T20:10:20.916Z,101433.84
2022-08-03T20:12:50.076Z,101436.39
2022-08-03T20:15:30.925Z,101428.77
2022-08-03T20:18:00.170Z,101433.65
2022-08-03T20:20:40.153Z,101434.85
2022-08-03T20:23:19.058Z,101441.10
2022-08-03T20:25:58.335Z,101431.91
2022-08-03T20:28:52.801Z,101449.15
2022-08-03T20:31:32.061Z,101439.95
2022-08-03T20:34:04.278Z,101440.35
2022-08-03T20:36:31.994Z,101440.74
2022-08-03T20:39:00.241Z,101444.08
2022-08-03T20:41:28.142Z,101442.15
2022-08-03T20:43:58.587Z,101442.54
2022-08-03T20:46:31.823Z,101439.23
2022-08-03T20:49:07.034Z,101444.89
2022-08-03T20:51:50.006Z,101443.72
2022-08-03T20:54:29.838Z,101431.62
2022-08-03T20:57:04.152Z,101431.81
2022-08-03T20:59:47.154Z,101435.73
2022-08-03T21:02:30.018Z,101435.34
2022-08-03T21:04:58.876Z,101428.91
2022-08-03T21:08:04.203Z,101434.33
2022-08-03T21:10:28.133Z,101429.46
2022-08-03T21:16:11.593Z,101438.65
2022-08-03T21:18:50.830Z,101430.24
2022-08-03T21:21:21.814Z,101434.13
2022-08-03T21:23:56.296Z,101432.96
2022-08-03T21:26:26.879Z,101438.42
2022-08-03T21:28:56.981Z,101433.52
2022-08-03T21:31:26.700Z,101430.21
2022-08-03T21:33:57.503Z,101427.46
2022-08-03T21:36:28.711Z,101426.29
2022-08-03T21:38:57.922Z,101425.90
2022-08-03T21:41:31.082Z,101420.01
2022-08-03T21:44:00.212Z,101425.24
2022-08-03T21:46:36.178Z,101425.44
2022-08-03T21:50:07.321Z,101434.76
2022-08-03T21:51:55.497Z,101426.74
2022-08-03T21:54:34.661Z,101424.78
2022-08-03T21:57:05.564Z,101425.50
2022-08-03T21:59:38.179Z,101424.91
2022-08-03T22:02:16.453Z,101426.42
2022-08-03T22:04:56.247Z,101431.88
2022-08-03T22:07:27.173Z,101429.13
2022-08-03T22:09:59.308Z,101427.14
2022-08-03T22:12:29.097Z,101429.66
2022-08-03T22:15:00.500Z,101434.27
2022-08-03T22:17:54.177Z,101436.00
2022-08-03T22:20:18.549Z,101431.32
2022-08-03T22:22:52.134Z,101437.30
2022-08-03T22:25:28.446Z,101427.56
2022-08-03T22:27:56.542Z,101433.77
2022-08-03T22:30:24.260Z,101439.95
2022-08-03T22:32:55.019Z,101442.70
2022-08-03T22:35:25.750Z,101445.22
2022-08-03T22:37:55.611Z,101445.58
2022-08-03T22:40:23.805Z,101440.09
2022-08-03T22:42:52.363Z,101447.64
2022-08-03T22:46:06.193Z,101450.91
2022-08-03T22:48:09.706Z,101445.45
2022-08-03T22:50:38.052Z,101447.94
2022-08-03T22:53:07.763Z,101451.20
2022-08-03T22:55:35.617Z,101449.24
2022-08-03T22:58:03.264Z,101446.46
2022-08-03T23:00:31.035Z,101447.02
2022-08-03T23:03:03.220Z,101448.49
2022-08-03T23:06:02.022Z,101449.44
2022-08-03T23:08:27.098Z,101455.62
2022-08-03T23:10:57.944Z,101458.10
2022-08-03T23:13:28.998Z,101454.97
2022-08-03T23:16:00.142Z,101455.33
2022-08-03T23:18:37.208Z,101457.62
2022-08-03T23:21:11.703Z,101460.88
2022-08-03T23:23:44.405Z,101458.10
2022-08-03T23:26:16.026Z,101459.22
2022-08-03T23:28:47.750Z,101460.36
2022-08-03T23:31:16.572Z,101460.49
2022-08-03T23:33:46.070Z,101463.20
2022-08-03T23:36:30.175Z,101462.52
2022-08-03T23:39:00.176Z,101462.09
2022-08-03T23:41:28.405Z,101458.95
2022-08-03T23:43:57.709Z,101456.96
2022-08-03T23:46:28.425Z,101457.29
2022-08-03T23:48:59.689Z,101456.08
2022-08-03T23:51:40.112Z,101458.01
2022-08-03T23:54:38.579Z,101464.16
2022-08-03T23:57:10.239Z,101462.12
2022-08-03T23:59:55.877Z,101455.06
